createdAt,value
2022-12-29T00:01:51.000Z,9.22
2022-12-29T00:04:21.911Z,9.55
2022-12-29T00:06:55.326Z,9.30
2022-12-29T00:09:25.804Z,9.33
2022-12-29T00:11:56.354Z,9.22
2022-12-29T00:14:45.094Z,9.19
2022-12-29T00:17:15.854Z,9.24
2022-12-29T00:20:04.196Z,9.02
2022-12-29T00:22:52.427Z,9.04
2022-12-29T00:25:41.095Z,9.17
2022-12-29T00:28:30.625Z,9.11
2022-12-29T00:31:20.388Z,9.23
2022-12-29T00:34:14.431Z,9.29
2022-12-29T00:36:45.665Z,9.35
2022-12-29T00:39:36.634Z,9.29
2022-12-29T00:42:28.315Z,9.27
2022-12-29T00:44:59.263Z,9.04
2022-12-29T00:47:30.525Z,9.44
2022-12-29T00:50:01.559Z,9.34
2022-12-29T00:52:32.181Z,9.40
2022-12-29T00:55:02.826Z,9.45
2022-12-29T00:57:33.374Z,9.31
2022-12-29T01:00:08.775Z,9.28
2022-12-29T01:02:39.367Z,9.14
2022-12-29T01:05:10.776Z,9.45
2022-12-29T01:07:47.352Z,9.44
2022-12-29T01:10:17.980Z,9.35
2022-12-29T01:12:48.743Z,9.41
2022-12-29T01:15:19.357Z,9.31
2022-12-29T01:17:49.936Z,9.20
2022-12-29T01:20:26.102Z,9.67
2022-12-29T01:22:56.580Z,9.63
2022-12-29T01:25:27.021Z,9.53
2022-12-29T01:27:57.560Z,9.17
2022-12-29T01:30:28.389Z,9.43
2022-12-29T01:32:59.289Z,9.47
2022-12-29T01:35:30.289Z,9.52
2022-12-29T01:38:00.871Z,9.18
2022-12-29T01:40:31.443Z,9.39
2022-12-29T01:43:11.121Z,9.43
2022-12-29T01:45:43.697Z,9.42
2022-12-29T01:48:15.970Z,9.40
2022-12-29T01:50:50.020Z,9.48
2022-12-29T01:53:26.377Z,9.34
2022-12-29T01:55:59.902Z,9.35
2022-12-29T01:58:33.997Z,9.25
2022-12-29T02:01:05.181Z,9.40
2022-12-29T02:03:37.671Z,9.40
2022-12-29T02:06:23.339Z,9.29
2022-12-29T02:08:56.987Z,9.30
2022-12-29T02:11:30.143Z,9.43
2022-12-29T02:14:03.601Z,9.41
2022-12-29T02:16:54.707Z,9.54
2022-12-29T02:20:01.204Z,9.17
2022-12-29T02:22:53.083Z,9.54
2022-12-29T02:25:42.906Z,9.53
2022-12-29T02:28:34.988Z,9.42
2022-12-29T02:31:32.875Z,9.35
2022-12-29T02:34:26.879Z,9.44
2022-12-29T02:37:10.330Z,9.54
2022-12-29T02:39:51.409Z,9.49
2022-12-29T02:42:41.277Z,9.22
2022-12-29T02:45:24.593Z,9.32
2022-12-29T02:48:00.920Z,9.38
2022-12-29T02:50:37.486Z,9.13
2022-12-29T02:53:17.230Z,9.18
2022-12-29T02:55:52.139Z,9.32
2022-12-29T02:58:25.465Z,8.77
2022-12-29T03:01:18.340Z,8.85
2022-12-29T03:03:58.138Z,9.16
2022-12-29T03:06:44.456Z,8.98
2022-12-29T03:09:19.577Z,9.02
2022-12-29T03:12:12.328Z,8.94
2022-12-29T03:15:25.593Z,8.87
2022-12-29T03:18:10.557Z,8.84
2022-12-29T03:20:47.192Z,9.14
2022-12-29T03:23:19.861Z,8.67
2022-12-29T03:25:53.252Z,8.85
2022-12-29T03:28:26.877Z,9.10
2022-12-29T03:30:59.979Z,8.85
2022-12-29T03:33:33.051Z,8.83
2022-12-29T03:36:06.784Z,8.96
2022-12-29T03:38:55.106Z,8.69
2022-12-29T03:41:30.211Z,8.77
2022-12-29T03:44:00.667Z,8.86
2022-12-29T03:46:32.383Z,8.71
2022-12-29T03:49:03.978Z,8.91
2022-12-29T03:51:36.023Z,8.97
2022-12-29T03:54:06.501Z,8.55
2022-12-29T03:56:36.967Z,8.84
2022-12-29T03:59:07.442Z,9.03
2022-12-29T04:01:37.990Z,8.92
2022-12-29T04:04:09.160Z,8.98
2022-12-29T04:06:40.199Z,8.90
2022-12-29T04:09:12.632Z,8.74
2022-12-29T04:11:43.114Z,9.09
2022-12-29T04:14:13.544Z,8.92
2022-12-29T04:16:44.967Z,8.86
2022-12-29T04:19:15.508Z,8.85
2022-12-29T04:21:45.975Z,9.08
2022-12-29T04:24:16.412Z,8.99
2022-12-29T04:26:49.732Z,8.80
2022-12-29T04:29:20.411Z,8.98
2022-12-29T04:31:51.301Z,8.78
2022-12-29T04:34:21.738Z,9.40
2022-12-29T04:36:53.431Z,8.85
2022-12-29T04:39:23.885Z,8.76
2022-12-29T04:41:54.635Z,9.08
2022-12-29T04:44:25.358Z,9.08
2022-12-29T04:46:56.125Z,9.00
2022-12-29T04:49:26.680Z,9.03
2022-12-29T04:51:58.350Z,9.14
2022-12-29T04:54:28.910Z,9.29
2022-12-29T04:56:59.857Z,8.99
2022-12-29T04:59:30.663Z,9.41
2022-12-29T05:02:02.445Z,9.13
2022-12-29T05:04:33.185Z,9.26
2022-12-29T05:07:04.321Z,9.07
2022-12-29T05:09:34.964Z,9.34
2022-12-29T05:12:06.147Z,9.25
2022-12-29T05:14:36.720Z,9.07
2022-12-29T05:17:07.372Z,9.15
2022-12-29T05:19:39.558Z,9.29
2022-12-29T05:22:10.398Z,9.19
2022-12-29T05:24:42.471Z,9.08
2022-12-29T05:27:14.330Z,9.43
2022-12-29T05:29:44.973Z,9.56
2022-12-29T05:32:16.724Z,9.22
2022-12-29T05:34:49.305Z,9.25
2022-12-29T05:37:20.245Z,9.44
2022-12-29T05:39:50.700Z,8.95
2022-12-29T05:42:21.246Z,9.31
2022-12-29T05:44:54.647Z,9.11
2022-12-29T05:47:25.808Z,9.16
2022-12-29T05:49:56.487Z,9.26
2022-12-29T05:52:28.192Z,9.58
2022-12-29T05:54:58.682Z,9.16
2022-12-29T05:57:29.242Z,9.28
2022-12-29T06:00:01.862Z,9.10
2022-12-29T06:02:32.747Z,9.54
2022-12-29T06:05:05.151Z,9.45
2022-12-29T06:07:35.703Z,9.41
2022-12-29T06:10:08.436Z,9.33
2022-12-29T06:12:40.784Z,9.38
2022-12-29T06:15:11.999Z,9.37
2022-12-29T06:17:42.587Z,9.37
2022-12-29T06:20:13.732Z,9.38
2022-12-29T06:22:45.363Z,9.33
2022-12-29T06:25:16.302Z,9.45
2022-12-29T06:27:46.981Z,9.13
2022-12-29T06:30:18.259Z,9.29
2022-12-29T06:32:48.850Z,9.21
2022-12-29T06:35:19.777Z,9.13
2022-12-29T06:37:51.857Z,9.50
2022-12-29T06:40:24.400Z,9.23
2022-12-29T06:42:54.886Z,9.06
2022-12-29T06:45:25.466Z,9.39
2022-12-29T06:47:56.244Z,9.01
2022-12-29T06:50:27.978Z,9.04
2022-12-29T06:52:58.530Z,9.43
2022-12-29T06:55:29.408Z,9.05
2022-12-29T06:58:02.259Z,9.57
2022-12-29T07:00:32.937Z,9.45
2022-12-29T07:03:03.947Z,9.78
2022-12-29T07:05:35.863Z,9.57
2022-12-29T07:08:06.935Z,9.44
2022-12-29T07:10:38.014Z,9.36
2022-12-29T07:13:11.950Z,9.47
2022-12-29T07:15:42.628Z,9.11
2022-12-29T07:18:13.166Z,9.38
2022-12-29T07:20:43.695Z,9.61
2022-12-29T07:23:14.303Z,9.44
2022-12-29T07:25:45.211Z,9.59
2022-12-29T07:28:17.208Z,9.58
2022-12-29T07:30:49.020Z,9.83
2022-12-29T07:33:19.643Z,9.62
2022-12-29T07:35:51.581Z,9.60
2022-12-29T07:38:22.472Z,9.68
2022-12-29T07:40:53.304Z,9.72
2022-12-29T07:43:23.874Z,9.84
2022-12-29T07:45:54.371Z,9.45
2022-12-29T07:48:25.121Z,9.45
2022-12-29T07:50:56.234Z,9.84
2022-12-29T07:53:28.585Z,9.84
2022-12-29T07:55:59.210Z,9.78
2022-12-29T07:58:29.813Z,9.96
2022-12-29T08:01:00.400Z,10.25
2022-12-29T08:03:31.286Z,10.02
2022-12-29T08:06:02.340Z,9.82
2022-12-29T08:08:32.883Z,9.70
2022-12-29T08:11:03.320Z,9.92
2022-12-29T08:13:33.964Z,10.06
2022-12-29T08:16:04.944Z,9.90
2022-12-29T08:18:40.363Z,10.22
2022-12-29T08:21:10.783Z,10.22
2022-12-29T08:23:41.254Z,10.13
2022-12-29T08:26:13.222Z,10.11
2022-12-29T08:28:43.920Z,10.25
2022-12-29T08:31:16.193Z,10.16
2022-12-29T08:33:46.741Z,10.26
2022-12-29T08:36:17.204Z,9.96
2022-12-29T08:38:47.887Z,9.96
2022-12-29T08:41:24.514Z,10.45
2022-12-29T08:43:52.862Z,10.25
2022-12-29T08:46:25.039Z,10.25
2022-12-29T08:48:56.513Z,10.44
2022-12-29T08:51:28.234Z,10.43
2022-12-29T08:53:59.044Z,10.43
2022-12-29T08:56:30.509Z,10.36
2022-12-29T08:59:02.254Z,10.32
2022-12-29T09:01:32.807Z,10.55
2022-12-29T09:04:14.856Z,10.55
2022-12-29T09:06:40.689Z,10.40
2022-12-29T09:09:11.592Z,10.69
2022-12-29T09:11:43.085Z,10.29
2022-12-29T09:14:14.711Z,10.29
2022-12-29T09:17:03.666Z,10.62
2022-12-29T09:19:34.599Z,10.80
2022-12-29T09:22:05.147Z,10.87
2022-12-29T09:24:35.744Z,10.66
2022-12-29T09:27:06.221Z,10.73
2022-12-29T09:29:36.925Z,10.73
2022-12-29T09:32:10.619Z,10.73
2022-12-29T09:34:40.824Z,10.77
2022-12-29T09:37:12.596Z,10.71
2022-12-29T09:39:44.717Z,10.71
2022-12-29T09:42:18.367Z,11.01
2022-12-29T09:45:14.616Z,10.81
2022-12-29T09:47:48.914Z,10.72
2022-12-29T09:50:31.879Z,10.98
2022-12-29T09:53:13.014Z,10.73
2022-12-29T09:55:49.334Z,10.93
2022-12-29T09:58:25.335Z,10.82
2022-12-29T10:01:04.318Z,10.87
2022-12-29T10:03:40.536Z,10.95
2022-12-29T10:06:32.860Z,10.72
2022-12-29T10:09:35.228Z,10.95
2022-12-29T10:12:28.197Z,10.94
2022-12-29T10:15:01.580Z,10.74
2022-12-29T10:17:50.458Z,11.04
2022-12-29T10:20:31.263Z,11.04
2022-12-29T10:23:22.643Z,11.36
2022-12-29T10:25:55.332Z,11.36
2022-12-29T10:28:29.121Z,11.26
2022-12-29T10:31:05.047Z,10.88
2022-12-29T10:33:38.323Z,10.88
2022-12-29T10:36:21.602Z,11.13
2022-12-29T10:39:20.806Z,10.94
2022-12-29T10:42:06.438Z,11.21
2022-12-29T10:44:39.014Z,10.96
2022-12-29T10:47:13.679Z,10.96
2022-12-29T10:49:47.129Z,11.09
2022-12-29T10:52:21.273Z,11.19
2022-12-29T10:55:18.937Z,11.28
2022-12-29T10:57:50.970Z,11.09
2022-12-29T11:00:23.972Z,11.09
2022-12-29T11:03:15.544Z,11.67
2022-12-29T11:05:51.703Z,11.67
2022-12-29T11:08:37.053Z,11.46
2022-12-29T11:11:10.559Z,11.46
2022-12-29T11:13:56.457Z,11.64
2022-12-29T11:16:33.093Z,12.13
2022-12-29T11:19:04.171Z,12.75
2022-12-29T11:21:39.488Z,12.64
2022-12-29T11:24:26.130Z,12.68
2022-12-29T11:26:58.960Z,13.34
2022-12-29T11:29:33.272Z,12.59
2022-12-29T11:32:06.694Z,12.27
2022-12-29T11:34:38.150Z,12.71
2022-12-29T11:37:17.261Z,13.03
2022-12-29T11:39:59.575Z,12.89
2022-12-29T11:42:42.219Z,13.11
2022-12-29T11:45:22.825Z,13.08
2022-12-29T11:48:02.019Z,12.85
2022-12-29T11:50:34.897Z,12.44
2022-12-29T11:53:12.403Z,12.58
2022-12-29T11:55:44.506Z,12.50
2022-12-29T11:58:18.031Z,12.31
2022-12-29T12:00:51.259Z,12.49
2022-12-29T12:03:27.672Z,12.61
2022-12-29T12:06:06.381Z,12.57
2022-12-29T12:08:39.726Z,13.12
2022-12-29T12:11:15.738Z,13.16
2022-12-29T12:14:04.524Z,13.24
2022-12-29T12:16:43.669Z,13.22
2022-12-29T12:19:25.760Z,12.93
2022-12-29T12:22:02.209Z,12.77
2022-12-29T12:24:47.529Z,12.82
2022-12-29T12:27:33.058Z,13.11
2022-12-29T12:30:15.454Z,12.85
2022-12-29T12:32:54.666Z,12.74
2022-12-29T12:35:28.030Z,12.54
2022-12-29T12:38:13.587Z,12.78
2022-12-29T12:40:55.896Z,12.46
2022-12-29T12:43:42.663Z,12.72
2022-12-29T12:46:22.033Z,12.52
2022-12-29T12:49:07.409Z,12.60
2022-12-29T12:51:46.576Z,12.64
2022-12-29T12:54:41.542Z,12.77
2022-12-29T12:57:20.715Z,12.33
2022-12-29T13:00:13.890Z,12.43
2022-12-29T13:02:59.573Z,12.75
2022-12-29T13:05:53.126Z,12.68
2022-12-29T13:08:59.682Z,12.69
2022-12-29T13:11:33.073Z,12.35
2022-12-29T13:14:34.021Z,12.56
2022-12-29T13:17:13.430Z,12.85
2022-12-29T13:19:46.768Z,12.24
2022-12-29T13:22:22.879Z,12.72
2022-12-29T13:25:11.367Z,12.47
2022-12-29T13:27:44.778Z,12.70
2022-12-29T13:30:23.843Z,12.55
2022-12-29T13:33:21.057Z,12.67
2022-12-29T13:36:09.035Z,12.55
2022-12-29T13:38:47.924Z,12.61
2022-12-29T13:41:31.418Z,12.76
2022-12-29T13:44:05.144Z,12.62
2022-12-29T13:46:41.472Z,12.42
2022-12-29T13:49:17.797Z,12.75
2022-12-29T13:51:57.251Z,12.55
2022-12-29T13:54:30.787Z,12.51
2022-12-29T13:57:16.311Z,12.58
2022-12-29T14:00:01.865Z,12.52
2022-12-29T14:02:42.597Z,12.76
2022-12-29T14:05:28.304Z,12.25
2022-12-29T14:08:01.698Z,12.69
2022-12-29T14:10:42.578Z,12.41
2022-12-29T14:13:21.790Z,12.66
2022-12-29T14:16:00.865Z,12.62
2022-12-29T14:18:33.662Z,12.25
2022-12-29T14:21:12.728Z,12.64
2022-12-29T14:23:45.407Z,12.40
2022-12-29T14:26:19.178Z,12.20
2022-12-29T14:28:52.561Z,12.61
2022-12-29T14:31:34.956Z,12.02
2022-12-29T14:34:17.362Z,12.34
2022-12-29T14:37:00.738Z,12.34
2022-12-29T14:39:45.935Z,12.24
2022-12-29T14:42:19.734Z,11.85
2022-12-29T14:45:17.917Z,12.05
2022-12-29T14:47:53.967Z,11.92
2022-12-29T14:50:45.514Z,12.22
2022-12-29T14:53:47.844Z,11.68
2022-12-29T14:56:21.447Z,11.77
2022-12-29T14:59:05.050Z,11.75
2022-12-29T15:01:48.715Z,11.69
2022-12-29T15:04:25.124Z,11.66
2022-12-29T15:06:56.603Z,11.80
2022-12-29T15:09:37.625Z,11.61
2022-12-29T15:12:42.733Z,11.74
2022-12-29T15:15:30.539Z,11.70
2022-12-29T15:18:04.341Z,11.67
2022-12-29T15:20:34.896Z,11.56
2022-12-29T15:23:08.360Z,12.01
2022-12-29T15:25:43.051Z,11.82
2022-12-29T15:28:15.115Z,11.79
2022-12-29T15:30:56.121Z,11.69
2022-12-29T15:33:29.117Z,11.52
2022-12-29T15:36:03.822Z,11.86
2022-12-29T15:38:40.242Z,11.59
2022-12-29T15:41:10.539Z,12.01
2022-12-29T15:44:15.878Z,11.79
2022-12-29T15:46:46.491Z,11.71
2022-12-29T15:49:18.155Z,11.63
2022-12-29T15:51:48.796Z,11.57
2022-12-29T15:54:24.640Z,11.77
2022-12-29T15:56:55.229Z,11.61
2022-12-29T15:59:33.116Z,11.49
2022-12-29T16:02:11.898Z,11.67
2022-12-29T16:04:54.027Z,11.67
2022-12-29T16:07:13.113Z,11.75
2022-12-29T16:09:46.938Z,11.24
2022-12-29T16:12:23.478Z,11.65
2022-12-29T16:14:58.013Z,11.66
2022-12-29T16:17:31.536Z,11.64
2022-12-29T16:20:06.885Z,11.69
2022-12-29T16:22:40.358Z,11.77
2022-12-29T16:25:22.328Z,12.05
2022-12-29T16:27:54.421Z,11.67
2022-12-29T16:30:33.497Z,11.64
2022-12-29T16:33:03.830Z,11.91
2022-12-29T16:35:48.983Z,11.96
2022-12-29T16:38:25.597Z,11.67
2022-12-29T16:40:59.336Z,11.89
2022-12-29T16:43:35.983Z,11.71
2022-12-29T16:46:19.418Z,11.50
2022-12-29T16:48:54.089Z,11.78
2022-12-29T16:51:39.245Z,12.02
2022-12-29T16:54:12.704Z,11.62
2022-12-29T16:56:46.588Z,11.92
2022-12-29T16:59:30.372Z,11.85
2022-12-29T17:02:03.825Z,11.63
2022-12-29T17:04:34.458Z,11.64
2022-12-29T17:07:04.998Z,11.44
2022-12-29T17:09:35.548Z,11.38
2022-12-29T17:12:11.596Z,11.44
2022-12-29T17:14:45.733Z,11.34
2022-12-29T17:17:34.251Z,11.35
2022-12-29T17:20:09.178Z,11.25
2022-12-29T17:22:39.787Z,11.41
2022-12-29T17:25:19.212Z,11.28
2022-12-29T17:27:55.473Z,11.36
2022-12-29T17:30:33.131Z,11.20
2022-12-29T17:33:09.109Z,11.20
2022-12-29T17:35:40.047Z,10.86
2022-12-29T17:38:22.372Z,11.68
2022-12-29T17:40:53.094Z,11.18
2022-12-29T17:43:23.750Z,10.93
2022-12-29T17:46:00.031Z,10.97
2022-12-29T17:48:30.639Z,11.01
2022-12-29T17:51:02.522Z,11.30
2022-12-29T17:53:36.193Z,11.17
2022-12-29T17:56:07.624Z,10.97
2022-12-29T17:58:38.183Z,10.98
2022-12-29T18:01:09.700Z,11.00
2022-12-29T18:03:42.048Z,10.87
2022-12-29T18:06:14.643Z,10.91
2022-12-29T18:08:45.796Z,10.76
2022-12-29T18:11:23.255Z,10.85
2022-12-29T18:13:55.416Z,11.06
2022-12-29T18:16:27.210Z,11.20
2022-12-29T18:18:58.922Z,10.66
2022-12-29T18:21:29.510Z,10.90
2022-12-29T18:24:00.074Z,10.89
2022-12-29T18:26:36.024Z,10.83
2022-12-29T18:29:07.811Z,11.08
2022-12-29T18:31:39.248Z,10.77
2022-12-29T18:34:15.992Z,10.76
2022-12-29T18:36:46.613Z,10.69
2022-12-29T18:39:17.146Z,10.69
2022-12-29T18:41:48.881Z,10.50
2022-12-29T18:44:20.670Z,10.51
2022-12-29T18:46:51.622Z,10.51
2022-12-29T18:49:24.239Z,10.98
2022-12-29T18:51:55.009Z,10.98
2022-12-29T18:54:31.562Z,11.06
2022-12-29T18:57:02.147Z,10.56
2022-12-29T18:59:32.780Z,10.92
2022-12-29T19:02:03.437Z,11.14
2022-12-29T19:04:34.040Z,11.15
2022-12-29T19:07:04.647Z,11.22
2022-12-29T19:09:35.225Z,10.92
2022-12-29T19:12:07.085Z,10.69
2022-12-29T19:14:37.621Z,11.03
2022-12-29T19:17:13.331Z,10.67
2022-12-29T19:19:44.082Z,10.75
2022-12-29T19:22:14.695Z,10.94
2022-12-29T19:24:45.266Z,11.26
2022-12-29T19:27:16.236Z,11.00
2022-12-29T19:29:46.855Z,11.41
2022-12-29T19:32:17.626Z,11.56
2022-12-29T19:34:49.032Z,11.61
2022-12-29T19:37:19.673Z,11.47
2022-12-29T19:39:51.371Z,11.47
2022-12-29T19:42:21.971Z,11.56
2022-12-29T19:44:52.529Z,11.61
2022-12-29T19:47:27.061Z,11.66
2022-12-29T19:49:56.515Z,11.62
2022-12-29T19:52:28.283Z,11.63
2022-12-29T19:54:59.209Z,11.58
2022-12-29T19:57:29.999Z,11.25
2022-12-29T20:00:00.613Z,11.41
2022-12-29T20:02:34.562Z,11.74
2022-12-29T20:05:05.634Z,11.41
2022-12-29T20:07:37.927Z,11.35
2022-12-29T20:10:09.764Z,11.32
2022-12-29T20:12:40.348Z,11.67
2022-12-29T20:15:13.900Z,11.33
2022-12-29T20:18:12.412Z,11.26
2022-12-29T20:20:18.757Z,11.26
2022-12-29T20:22:50.503Z,11.61
2022-12-29T20:27:54.384Z,11.47
2022-12-29T20:30:25.988Z,11.13
2022-12-29T20:32:56.873Z,11.33
2022-12-29T20:35:28.210Z,11.21
2022-12-29T20:37:58.796Z,11.26
2022-12-29T20:40:29.374Z,11.44
2022-12-29T20:43:00.061Z,10.96
2022-12-29T20:45:30.782Z,11.41
2022-12-29T20:48:01.433Z,11.34
2022-12-29T20:50:32.009Z,11.36
2022-12-29T20:53:02.556Z,11.24
2022-12-29T20:55:33.096Z,11.12
2022-12-29T21:00:36.018Z,11.48
2022-12-29T21:03:06.825Z,11.09
2022-12-29T21:05:39.493Z,11.20
2022-12-29T21:08:12.387Z,11.01
2022-12-29T21:10:44.416Z,10.88
2022-12-29T21:13:15.806Z,11.13
2022-12-29T21:15:47.296Z,11.03
2022-12-29T21:18:17.894Z,10.62
2022-12-29T21:21:00.913Z,11.07
2022-12-29T21:23:31.699Z,10.87
2022-12-29T21:26:02.237Z,10.72
2022-12-29T21:28:32.854Z,10.65
2022-12-29T21:31:11.836Z,10.56
2022-12-29T21:33:42.528Z,10.66
2022-12-29T21:36:13.232Z,10.57
2022-12-29T21:38:43.890Z,10.30
2022-12-29T21:41:17.616Z,10.56
2022-12-29T21:44:06.959Z,10.54
2022-12-29T21:46:40.061Z,10.86
2022-12-29T21:49:12.103Z,10.56
2022-12-29T21:51:52.485Z,10.48
2022-12-29T21:54:49.373Z,10.42
2022-12-29T21:57:38.968Z,10.64
2022-12-29T22:00:28.955Z,10.97
2022-12-29T22:03:23.087Z,10.73
2022-12-29T22:06:09.187Z,10.91
2022-12-29T22:08:58.113Z,11.14
2022-12-29T22:11:46.837Z,11.10
2022-12-29T22:14:17.455Z,10.84
2022-12-29T22:16:48.137Z,10.99
2022-12-29T22:19:18.685Z,11.19
2022-12-29T22:21:49.247Z,10.95
2022-12-29T22:24:21.026Z,10.91
2022-12-29T22:26:52.768Z,10.96
2022-12-29T22:29:23.336Z,10.84
2022-12-29T22:31:53.925Z,11.06
2022-12-29T22:34:24.473Z,11.06
2022-12-29T22:36:55.044Z,11.06
2022-12-29T22:39:25.662Z,10.85
2022-12-29T22:41:56.241Z,10.81
2022-12-29T22:44:26.815Z,11.05
2022-12-29T22:46:57.447Z,11.14
2022-12-29T22:49:28.211Z,11.12
2022-12-29T22:51:58.763Z,10.95
2022-12-29T22:54:29.311Z,11.05
2022-12-29T22:56:59.971Z,10.64
2022-12-29T22:59:30.591Z,10.79
2022-12-29T23:02:01.255Z,10.86
2022-12-29T23:05:02.869Z,10.90
2022-12-29T23:07:06.713Z,10.95
2022-12-29T23:09:37.286Z,10.92
2022-12-29T23:12:08.012Z,11.02
2022-12-29T23:14:38.582Z,11.05
2022-12-29T23:17:09.209Z,10.76
2022-12-29T23:19:39.885Z,10.86
2022-12-29T23:22:10.441Z,10.99
2022-12-29T23:24:41.022Z,10.99
2022-12-29T23:27:11.570Z,10.91
2022-12-29T23:29:43.381Z,11.22
2022-12-29T23:32:13.979Z,11.11
2022-12-29T23:34:45.702Z,11.05
2022-12-29T23:37:16.354Z,11.09
2022-12-29T23:39:46.916Z,11.34
2022-12-29T23:42:18.834Z,11.16
2022-12-29T23:44:49.387Z,11.12
2022-12-29T23:47:19.981Z,11.04
2022-12-29T23:49:50.662Z,11.00
2022-12-29T23:52:21.220Z,11.31
2022-12-29T23:54:52.973Z,10.90
2022-12-29T23:57:23.532Z,10.99
2022-12-29T23:59:54.151Z,11.13
